Time;durP1;ratioP1;P1;durP2;ratioP2;P2;SDS_P1;SDS_P2;PMS_P1;PMS_P2;Temp;Humidity;BMP_temperature;BMP_pressure;BME280_temperature;BME280_humidity;BME280_pressure;Samples;Min_cycle;Max_cycle;Signal;HPM_P1;HPM_P2
2022/06/24 00:09:53;;;;;;;;;;;23.30;51.00;;;;;;20916103;28;19952;-73
2022/06/24 00:19:58;;;;;;;;;;;23.20;51.00;;;;;;20882659;28;20371;-72
2022/06/24 00:30:06;;;;;;;;;;;23.20;51.00;;;;;;20899600;28;19968;-72
2022/06/24 00:40:09;;;;;;;;;;;23.10;51.00;;;;;;20896855;28;19971;-72
2022/06/24 00:50:23;;;;;;;;;;;23.10;51.10;;;;;;20914098;28;19954;-71
2022/06/24 01:00:24;;;;;;;;;;;23.10;51.20;;;;;;20894801;28;20003;-71
2022/06/24 01:10:25;;;;;;;;;;;23.10;51.40;;;;;;20894594;28;19923;-72
2022/06/24 01:20:25;;;;;;;;;;;23.00;51.50;;;;;;20893170;28;20438;-72
2022/06/24 01:30:26;;;;;;;;;;;23.00;51.60;;;;;;20875808;28;19917;-72
2022/06/24 01:40:27;;;;;;;;;;;22.90;51.80;;;;;;20892592;28;19917;-70
2022/06/24 01:50:27;;;;;;;;;;;22.90;52.00;;;;;;20891012;28;20363;-71
2022/06/24 02:00:28;;;;;;;;;;;22.80;52.20;;;;;;20890056;28;19928;-72
2022/06/24 02:20:49;;;;;;;;;;;22.70;52.70;;;;;;20874772;28;19921;-72
2022/06/24 02:30:53;;;;;;;;;;;22.70;53.00;;;;;;20888838;28;19921;-70
2022/06/24 02:40:54;;;;;;;;;;;22.60;53.00;;;;;;20872177;28;19917;-71
2022/06/24 02:50:55;;;;;;;;;;;22.60;53.20;;;;;;20887193;28;19924;-71
2022/06/24 03:00:56;;;;;;;;;;;22.60;53.40;;;;;;20886645;28;19916;-72
2022/06/24 03:10:56;;;;;;;;;;;22.50;53.60;;;;;;20886190;28;19920;-71
2022/06/24 03:20:57;;;;;;;;;;;22.50;53.90;;;;;;20853097;28;19923;-71
2022/06/24 03:30:57;;;;;;;;;;;22.50;54.00;;;;;;20885760;28;19916;-71
2022/06/24 03:40:58;;;;;;;;;;;22.50;54.20;;;;;;20877716;28;19917;-71
2022/06/24 03:50:58;;;;;;;;;;;22.50;54.30;;;;;;20883771;28;20393;-73
2022/06/24 04:00:59;;;;;;;;;;;22.30;54.40;;;;;;20900703;28;19916;-71
2022/06/24 04:11:07;;;;;;;;;;;22.40;54.60;;;;;;20882144;28;20015;-73
2022/06/24 04:21:11;;;;;;;;;;;22.50;54.60;;;;;;20917264;28;19964;-73
2022/06/24 04:31:12;;;;;;;;;;;22.50;54.50;;;;;;20874525;28;19917;-69
2022/06/24 04:41:13;;;;;;;;;;;22.50;54.50;;;;;;20879443;28;20012;-71
2022/06/24 04:51:14;;;;;;;;;;;22.60;54.30;;;;;;20879453;28;19924;-70
2022/06/24 05:01:14;;;;;;;;;;;22.70;54.40;;;;;;20892274;28;20019;-69
2022/06/24 05:11:15;;;;;;;;;;;22.80;54.50;;;;;;20860107;28;19963;-69
2022/06/24 05:21:15;;;;;;;;;;;22.80;54.50;;;;;;20869934;28;20659;-72
2022/06/24 05:31:16;;;;;;;;;;;22.70;54.40;;;;;;20891956;28;20298;-72
2022/06/24 05:41:17;;;;;;;;;;;22.80;54.20;;;;;;20872492;28;20005;-69
2022/06/24 05:51:17;;;;;;;;;;;22.90;54.10;;;;;;20887566;28;19952;-70
2022/06/24 06:01:18;;;;;;;;;;;22.90;53.80;;;;;;20902329;28;19916;-76
2022/06/24 06:11:22;;;;;;;;;;;23.00;53.70;;;;;;20853289;28;20008;-72
2022/06/24 06:21:23;;;;;;;;;;;23.10;53.50;;;;;;20871088;28;20282;-73
2022/06/24 06:31:24;;;;;;;;;;;23.20;53.50;;;;;;20870507;28;19923;-74
2022/06/24 06:41:25;;;;;;;;;;;23.30;53.40;;;;;;20866952;28;19917;-73
2022/06/24 06:51:25;;;;;;;;;;;23.30;53.40;;;;;;20879741;28;19976;-71
2022/06/24 07:01:26;;;;;;;;;;;23.50;53.50;;;;;;20864150;28;20444;-72
2022/06/24 07:11:26;;;;;;;;;;;23.50;53.30;;;;;;20883977;28;19924;-73
2022/06/24 07:21:27;;;;;;;;;;;23.60;53.20;;;;;;20881047;28;19927;-73
2022/06/24 07:31:27;;;;;;;;;;;23.70;53.10;;;;;;20897843;28;19917;-73
2022/06/24 07:41:28;;;;;;;;;;;23.80;53.20;;;;;;21216414;22;19931;-79
2022/06/24 07:51:28;;;;;;;;;;;23.90;53.20;;;;;;20815224;28;19917;-78
2022/06/24 08:01:29;;;;;;;;;;;23.90;53.10;;;;;;20815087;28;20023;-79
2022/06/24 08:11:29;;;;;;;;;;;24.10;53.30;;;;;;20816048;28;19960;-80
2022/06/24 08:21:30;;;;;;;;;;;24.00;53.10;;;;;;20812737;28;19922;-78
2022/06/24 08:31:30;;;;;;;;;;;24.10;53.20;;;;;;20796849;28;19920;-79
2022/06/24 08:41:31;;;;;;;;;;;24.10;53.30;;;;;;20778543;28;20012;-79
2022/06/24 08:51:33;;;;;;;;;;;24.10;53.30;;;;;;20779344;28;19917;-81
2022/06/24 09:01:41;;;;;;;;;;;24.10;53.20;;;;;;20810418;28;20445;-78
2022/06/24 09:11:41;;;;;;;;;;;24.20;53.40;;;;;;20813371;28;19923;-77
2022/06/24 09:21:42;;;;;;;;;;;24.30;53.60;;;;;;20800239;28;20012;-78
2022/06/24 09:31:43;;;;;;;;;;;24.20;53.70;;;;;;20796489;28;20317;-80
2022/06/24 09:41:44;;;;;;;;;;;24.20;53.70;;;;;;20796687;28;19928;-80
2022/06/24 09:51:45;;;;;;;;;;;24.20;53.70;;;;;;20810788;28;19913;-79
2022/06/24 10:01:45;;;;;;;;;;;24.20;53.60;;;;;;20808852;28;20675;-78
2022/06/24 10:11:46;;;;;;;;;;;24.20;53.50;;;;;;20778368;28;20023;-80
2022/06/24 10:21:46;;;;;;;;;;;24.20;53.50;;;;;;20788210;28;20397;-78
2022/06/24 10:31:52;;;;;;;;;;;24.20;53.40;;;;;;20813358;28;19917;-74
2022/06/24 10:42:06;;;;;;;;;;;24.10;53.40;;;;;;20811683;28;20493;-78
2022/06/24 10:52:26;;;;;;;;;;;24.10;53.30;;;;;;20803990;28;20282;-82
2022/06/24 11:02:26;;;;;;;;;;;24.20;53.30;;;;;;20810473;28;20035;-79
2022/06/24 11:12:33;;;;;;;;;;;24.20;53.40;;;;;;20770130;28;19913;-79
2022/06/24 11:22:43;;;;;;;;;;;24.10;53.50;;;;;;20769372;28;19928;-83
2022/06/24 11:33:17;;;;;;;;;;;24.10;53.80;;;;;;20791160;28;19913;-81
2022/06/24 11:43:18;;;;;;;;;;;24.10;54.00;;;;;;20798409;28;19924;-79
2022/06/24 11:53:22;;;;;;;;;;;24.10;54.70;;;;;;20800027;28;20290;-79
2022/06/24 12:03:23;;;;;;;;;;;24.10;54.90;;;;;;20777692;28;19928;-79
2022/06/24 12:13:28;;;;;;;;;;;24.00;55.00;;;;;;20814034;28;19913;-82
2022/06/24 12:23:35;;;;;;;;;;;24.00;55.10;;;;;;20782344;28;19921;-81
2022/06/24 12:33:52;;;;;;;;;;;24.10;55.10;;;;;;20793274;28;19952;-81
2022/06/24 12:43:57;;;;;;;;;;;24.10;55.10;;;;;;20807080;28;19964;-80
2022/06/24 12:53:58;;;;;;;;;;;24.10;55.50;;;;;;20776040;28;19917;-79
2022/06/24 13:03:59;;;;;;;;;;;24.00;55.40;;;;;;20803977;28;20369;-80
2022/06/24 13:14:00;;;;;;;;;;;24.00;55.60;;;;;;20806878;28;19995;-82
2022/06/24 13:24:01;;;;;;;;;;;24.00;55.60;;;;;;20779795;28;19925;-81
2022/06/24 13:34:01;;;;;;;;;;;24.00;55.60;;;;;;20793621;28;19921;-81
2022/06/24 13:44:02;;;;;;;;;;;24.00;55.70;;;;;;20791680;28;19932;-76
2022/06/24 13:54:02;;;;;;;;;;;24.00;55.80;;;;;;20790128;28;19921;-78
2022/06/24 14:04:03;;;;;;;;;;;24.00;56.00;;;;;;20773617;28;20334;-79
2022/06/24 14:14:03;;;;;;;;;;;24.10;56.20;;;;;;20789822;28;19933;-79
2022/06/24 14:34:23;;;;;;;;;;;24.00;56.30;;;;;;20806598;28;19917;-78
2022/06/24 14:44:24;;;;;;;;;;;24.10;56.10;;;;;;20798601;28;20016;-78
2022/06/24 14:54:26;;;;;;;;;;;24.10;55.80;;;;;;20801448;28;21666;-81
2022/06/24 15:04:26;;;;;;;;;;;24.20;55.80;;;;;;20769404;28;20334;-80
2022/06/24 15:14:27;;;;;;;;;;;24.30;55.90;;;;;;20785581;28;19920;-77
2022/06/24 15:24:27;;;;;;;;;;;24.40;55.90;;;;;;20787013;28;20325;-79
2022/06/24 15:34:28;;;;;;;;;;;24.60;55.80;;;;;;20761896;28;19956;-80
2022/06/24 15:44:29;;;;;;;;;;;24.60;55.60;;;;;;20822033;28;19924;-80
2022/06/24 15:54:29;;;;;;;;;;;24.60;55.60;;;;;;20805711;28;20371;-81
2022/06/24 16:04:30;;;;;;;;;;;24.50;55.80;;;;;;20805510;28;19970;-81
2022/06/24 16:14:30;;;;;;;;;;;24.40;56.10;;;;;;20790660;28;20008;-78
2022/06/24 16:24:31;;;;;;;;;;;24.40;56.20;;;;;;20830671;28;19998;-77
2022/06/24 16:34:32;;;;;;;;;;;24.40;56.30;;;;;;20812314;28;20380;-77
2022/06/24 16:44:32;;;;;;;;;;;24.30;56.30;;;;;;20791009;28;20375;-77
2022/06/24 16:54:34;;;;;;;;;;;24.30;56.30;;;;;;20786040;28;20015;-79
2022/06/24 17:04:34;;;;;;;;;;;24.30;56.30;;;;;;20787852;28;19917;-77
2022/06/24 17:14:35;;;;;;;;;;;24.30;56.20;;;;;;20816988;28;19971;-75
2022/06/24 17:24:37;;;;;;;;;;;24.30;56.10;;;;;;20792412;28;19924;-81
2022/06/24 17:34:38;;;;;;;;;;;24.30;56.10;;;;;;20782278;28;20015;-80
2022/06/24 17:44:38;;;;;;;;;;;24.30;56.10;;;;;;20779712;28;20356;-77
2022/06/24 17:54:39;;;;;;;;;;;24.40;56.00;;;;;;20808166;28;19921;-76
2022/06/24 18:04:40;;;;;;;;;;;24.50;55.90;;;;;;20809065;28;19939;-76
2022/06/24 18:14:40;;;;;;;;;;;24.40;55.80;;;;;;20807325;28;19924;-75
2022/06/24 18:24:41;;;;;;;;;;;24.30;55.80;;;;;;20778717;28;19924;-74
2022/06/24 18:34:43;;;;;;;;;;;24.40;56.00;;;;;;20789689;28;19917;-74
2022/06/24 18:44:43;;;;;;;;;;;24.30;56.20;;;;;;20766405;28;20017;-78
2022/06/24 18:54:45;;;;;;;;;;;24.30;56.50;;;;;;20803275;28;19968;-80
2022/06/24 19:04:45;;;;;;;;;;;24.30;56.60;;;;;;20807105;28;20375;-82
2022/06/24 19:14:47;;;;;;;;;;;24.30;56.60;;;;;;20840055;28;19924;-82
2022/06/24 19:24:47;;;;;;;;;;;24.30;56.70;;;;;;20755509;28;19924;-82
2022/06/24 19:34:48;;;;;;;;;;;24.20;56.90;;;;;;20790113;28;20262;-75
2022/06/24 19:44:48;;;;;;;;;;;24.20;57.20;;;;;;20808017;28;19960;-75
2022/06/24 19:54:49;;;;;;;;;;;24.20;57.60;;;;;;20822057;28;20285;-77
2022/06/24 20:15:09;;;;;;;;;;;24.20;58.20;;;;;;20834685;28;19917;-81
2022/06/24 20:25:10;;;;;;;;;;;24.20;58.40;;;;;;20819525;28;19990;-81
2022/06/24 20:35:10;;;;;;;;;;;24.10;58.60;;;;;;20822136;28;19924;-81
2022/06/24 20:45:11;;;;;;;;;;;24.20;58.90;;;;;;20820342;28;19917;-79
2022/06/24 20:55:11;;;;;;;;;;;24.20;59.30;;;;;;20801931;28;19917;-80
2022/06/24 21:05:12;;;;;;;;;;;24.20;59.80;;;;;;20818402;28;19965;-80
2022/06/24 21:15:13;;;;;;;;;;;24.10;60.80;;;;;;20818955;28;20279;-82
2022/06/24 21:25:14;;;;;;;;;;;24.10;61.50;;;;;;20816102;28;19917;-80
2022/06/24 21:35:15;;;;;;;;;;;24.10;61.90;;;;;;20798854;28;19918;-81
2022/06/24 21:45:15;;;;;;;;;;;24.10;62.10;;;;;;20832926;28;19917;-81
2022/06/24 21:55:16;;;;;;;;;;;24.10;62.30;;;;;;20831595;28;20274;-82
2022/06/24 22:05:16;;;;;;;;;;;24.10;62.30;;;;;;20813647;28;19917;-81
2022/06/24 22:15:17;;;;;;;;;;;24.10;62.40;;;;;;20830167;28;20401;-81
2022/06/24 22:25:17;;;;;;;;;;;24.00;62.40;;;;;;20795152;28;19960;-81
2022/06/24 22:35:18;;;;;;;;;;;24.00;62.70;;;;;;20811892;28;19921;-80
2022/06/24 22:45:18;;;;;;;;;;;23.90;63.30;;;;;;20810535;28;19921;-80
2022/06/24 22:55:19;;;;;;;;;;;23.90;63.50;;;;;;20794059;28;19917;-80
2022/06/24 23:05:19;;;;;;;;;;;23.90;63.80;;;;;;20810165;28;19917;-81
2022/06/24 23:15:20;;;;;;;;;;;23.80;64.10;;;;;;20794504;28;20363;-81
2022/06/24 23:25:20;;;;;;;;;;;23.70;64.10;;;;;;20810086;28;19924;-80
2022/06/24 23:35:21;;;;;;;;;;;23.70;64.30;;;;;;20777168;28;19917;-79
2022/06/24 23:45:21;;;;;;;;;;;23.70;64.40;;;;;;20808208;28;19952;-80
2022/06/24 23:55:22;;;;;;;;;;;23.70;64.40;;;;;;20798741;28;19917;-81
